Apache, Oklahoma
Current Conditions -  °F | °C
As of 8:58 PM on Monday 22 Dec 2014 (Local Time) from KFSI Reporting Station
Few Clouds Few Clouds  
Wind Chill: 46°   Ceiling: Unl
Heat Index: 49°   Visibility: 10mi
Dew Point: 36°   Wind: 8mph
Humidity: 61%   Direction: 360°N
Pressure: 29.65"   Gusts: NA
Location:  34.89°N, 98.37°W
Report Text: KFSI 230258Z AUTO 36007KT 10SM FEW120 10/02 A2965 RMK AO2 SLP040 T00970024 50009
Loading
Personal Weather Stations






























Interactive Weather Map New forecast layout! Learn more

10-Day Weather Forecast

Advertisements
Track Severe Weather on mobile